Terminal Aerodrome Forecast
Issued by NWS Memphis, TN

Home | Current Version | Previous Version | Text Only | Print | Product List | Glossary On
Versions: 1 2 3 4 5 6 7 8 9 10 11 12 13 14 15 16 17 18 19 20 21 22 23 24 25 26 27 28 29 30
696
FTUS44 KMEG 060524
TAFMEM
TAF
KMEM 060524Z 0606/0706 04005KT 4SM -RA BR VCTS OVC004CB
      TEMPO 0606/0610 2SM +RA OVC003
     FM061000 34005KT 4SM -RA BR OVC004
     FM061200 32009KT P6SM OVC006
      TEMPO 0612/0614 5SM -SHRA BR
     FM061700 33010KT P6SM OVC012
     FM061900 33010KT P6SM OVC020
     FM062300 36006KT P6SM OVC020=

USA.gov is the U.S. government's official web portal to all federal, state and local government web resources and services.